sensor_id;sensor_type;location;lat;lon;timestamp;P1;durP1;ratioP1;P2;durP2;ratioP2
63621;SDS011;49770;47.544;19.074;2023-02-15T05:19:22;63.85;;;27.30;;
63621;SDS011;49770;47.544;19.074;2023-02-15T05:22:27;69.85;;;27.98;;
63621;SDS011;49770;47.544;19.074;2023-02-15T05:25:30;71.25;;;28.05;;
63621;SDS011;49770;47.544;19.074;2023-02-15T05:28:51;64.80;;;27.27;;
63621;SDS011;49770;47.544;19.074;2023-02-15T05:31:54;62.95;;;26.87;;
63621;SDS011;49770;47.544;19.074;2023-02-15T05:34:58;60.95;;;26.73;;
63621;SDS011;49770;47.544;19.074;2023-02-15T05:38:00;57.33;;;25.40;;
63621;SDS011;49770;47.544;19.074;2023-02-15T05:41:04;60.10;;;25.67;;
63621;SDS011;49770;47.544;19.074;2023-02-15T05:44:07;58.20;;;25.75;;
63621;SDS011;49770;47.544;19.074;2023-02-15T05:47:10;60.03;;;26.37;;
63621;SDS011;49770;47.544;19.074;2023-02-15T05:50:12;54.47;;;25.27;;
63621;SDS011;49770;47.544;19.074;2023-02-15T05:53:18;67.47;;;26.83;;
63621;SDS011;49770;47.544;19.074;2023-02-15T05:56:21;59.05;;;26.33;;
63621;SDS011;49770;47.544;19.074;2023-02-15T05:59:24;55.28;;;24.73;;
63621;SDS011;49770;47.544;19.074;2023-02-15T06:02:27;54.95;;;24.87;;
63621;SDS011;49770;47.544;19.074;2023-02-15T06:05:30;51.03;;;24.05;;
63621;SDS011;49770;47.544;19.074;2023-02-15T06:08:33;52.83;;;25.67;;
63621;SDS011;49770;47.544;19.074;2023-02-15T06:11:37;53.75;;;25.75;;
63621;SDS011;49770;47.544;19.074;2023-02-15T06:14:40;56.45;;;24.33;;
63621;SDS011;49770;47.544;19.074;2023-02-15T06:17:43;53.10;;;24.55;;
63621;SDS011;49770;47.544;19.074;2023-02-15T06:20:46;57.47;;;25.52;;
63621;SDS011;49770;47.544;19.074;2023-02-15T06:23:49;53.47;;;24.63;;
63621;SDS011;49770;47.544;19.074;2023-02-15T06:26:52;48.28;;;22.35;;
63621;SDS011;49770;47.544;19.074;2023-02-15T06:29:55;55.22;;;26.23;;
63621;SDS011;49770;47.544;19.074;2023-02-15T06:32:58;48.45;;;23.10;;
63621;SDS011;49770;47.544;19.074;2023-02-15T06:36:01;52.15;;;24.98;;
63621;SDS011;49770;47.544;19.074;2023-02-15T06:39:04;56.47;;;24.98;;
63621;SDS011;49770;47.544;19.074;2023-02-15T06:42:07;56.63;;;26.60;;
63621;SDS011;49770;47.544;19.074;2023-02-15T06:45:10;50.00;;;25.70;;
63621;SDS011;49770;47.544;19.074;2023-02-15T06:48:14;55.65;;;25.75;;
63621;SDS011;49770;47.544;19.074;2023-02-15T06:51:16;61.65;;;28.10;;
63621;SDS011;49770;47.544;19.074;2023-02-15T06:54:20;56.37;;;26.98;;
63621;SDS011;49770;47.544;19.074;2023-02-15T06:57:23;61.67;;;28.10;;
63621;SDS011;49770;47.544;19.074;2023-02-15T07:00:26;59.78;;;29.12;;
63621;SDS011;49770;47.544;19.074;2023-02-15T07:03:32;54.58;;;27.52;;
63621;SDS011;49770;47.544;19.074;2023-02-15T07:06:38;54.38;;;26.75;;
63621;SDS011;49770;47.544;19.074;2023-02-15T07:09:41;57.75;;;27.85;;
63621;SDS011;49770;47.544;19.074;2023-02-15T07:12:44;50.97;;;25.67;;
63621;SDS011;49770;47.544;19.074;2023-02-15T07:15:48;54.10;;;26.77;;
63621;SDS011;49770;47.544;19.074;2023-02-15T07:18:52;48.67;;;25.40;;
63621;SDS011;49770;47.544;19.074;2023-02-15T07:21:54;56.00;;;27.50;;
63621;SDS011;49770;47.544;19.074;2023-02-15T07:24:57;54.35;;;27.67;;
63621;SDS011;49770;47.544;19.074;2023-02-15T07:28:03;56.58;;;29.42;;
63621;SDS011;49770;47.544;19.074;2023-02-15T07:31:06;57.30;;;28.25;;
63621;SDS011;49770;47.544;19.074;2023-02-15T07:34:09;63.47;;;29.65;;
63621;SDS011;49770;47.544;19.074;2023-02-15T07:37:12;61.97;;;28.58;;
63621;SDS011;49770;47.544;19.074;2023-02-15T07:40:15;57.28;;;29.77;;
63621;SDS011;49770;47.544;19.074;2023-02-15T07:43:18;59.78;;;29.63;;
63621;SDS011;49770;47.544;19.074;2023-02-15T07:46:20;57.72;;;28.30;;
63621;SDS011;49770;47.544;19.074;2023-02-15T07:49:24;54.70;;;27.35;;
63621;SDS011;49770;47.544;19.074;2023-02-15T07:52:26;54.15;;;26.35;;
63621;SDS011;49770;47.544;19.074;2023-02-15T07:55:30;51.58;;;25.45;;
63621;SDS011;49770;47.544;19.074;2023-02-15T07:58:33;54.53;;;26.98;;
63621;SDS011;49770;47.544;19.074;2023-02-15T08:01:55;50.88;;;25.85;;
63621;SDS011;49770;47.544;19.074;2023-02-15T08:04:59;51.42;;;26.48;;
63621;SDS011;49770;47.544;19.074;2023-02-15T08:08:02;55.28;;;28.65;;
63621;SDS011;49770;47.544;19.074;2023-02-15T08:11:13;57.28;;;28.10;;
63621;SDS011;49770;47.544;19.074;2023-02-15T08:14:38;57.42;;;28.77;;
63621;SDS011;49770;47.544;19.074;2023-02-15T08:17:41;57.83;;;29.55;;
63621;SDS011;49770;47.544;19.074;2023-02-15T08:20:48;58.30;;;29.40;;
63621;SDS011;49770;47.544;19.074;2023-02-15T08:23:52;55.40;;;28.67;;
63621;SDS011;49770;47.544;19.074;2023-02-15T08:26:55;56.88;;;29.30;;
63621;SDS011;49770;47.544;19.074;2023-02-15T08:29:58;56.28;;;29.63;;
63621;SDS011;49770;47.544;19.074;2023-02-15T08:33:01;54.13;;;27.73;;
63621;SDS011;49770;47.544;19.074;2023-02-15T08:36:05;52.53;;;27.13;;
63621;SDS011;49770;47.544;19.074;2023-02-15T08:39:14;55.72;;;27.37;;
63621;SDS011;49770;47.544;19.074;2023-02-15T08:42:18;51.03;;;26.08;;
63621;SDS011;49770;47.544;19.074;2023-02-15T08:45:22;54.42;;;26.87;;
63621;SDS011;49770;47.544;19.074;2023-02-15T08:48:28;48.42;;;26.23;;
63621;SDS011;49770;47.544;19.074;2023-02-15T08:51:31;54.05;;;26.25;;
63621;SDS011;49770;47.544;19.074;2023-02-15T08:54:36;49.40;;;25.10;;
63621;SDS011;49770;47.544;19.074;2023-02-15T08:57:39;47.30;;;24.73;;
63621;SDS011;49770;47.544;19.074;2023-02-15T09:00:47;44.72;;;25.88;;
63621;SDS011;49770;47.544;19.074;2023-02-15T09:03:51;44.72;;;24.95;;
63621;SDS011;49770;47.544;19.074;2023-02-15T09:06:57;42.15;;;25.45;;
63621;SDS011;49770;47.544;19.074;2023-02-15T09:10:00;42.15;;;25.05;;
63621;SDS011;49770;47.544;19.074;2023-02-15T09:13:03;36.15;;;24.10;;
63621;SDS011;49770;47.544;19.074;2023-02-15T09:16:13;40.03;;;25.42;;
63621;SDS011;49770;47.544;19.074;2023-02-15T09:19:25;41.58;;;25.20;;
63621;SDS011;49770;47.544;19.074;2023-02-15T09:22:27;43.72;;;25.67;;
63621;SDS011;49770;47.544;19.074;2023-02-15T09:25:33;46.97;;;26.92;;
63621;SDS011;49770;47.544;19.074;2023-02-15T09:28:36;47.67;;;26.62;;
63621;SDS011;49770;47.544;19.074;2023-02-15T09:31:40;44.50;;;26.58;;
63621;SDS011;49770;47.544;19.074;2023-02-15T09:34:48;47.97;;;26.52;;
63621;SDS011;49770;47.544;19.074;2023-02-15T09:37:51;44.67;;;25.83;;
63621;SDS011;49770;47.544;19.074;2023-02-15T09:54:40;49.40;;;27.90;;
63621;SDS011;49770;47.544;19.074;2023-02-15T09:57:57;48.28;;;27.00;;
63621;SDS011;49770;47.544;19.074;2023-02-15T10:12:01;47.33;;;25.73;;
63621;SDS011;49770;47.544;19.074;2023-02-15T10:15:51;42.55;;;25.00;;
63621;SDS011;49770;47.544;19.074;2023-02-15T10:19:00;45.05;;;24.92;;
63621;SDS011;49770;47.544;19.074;2023-02-15T10:22:31;45.60;;;24.90;;
63621;SDS011;49770;47.544;19.074;2023-02-15T10:26:03;44.92;;;24.17;;
63621;SDS011;49770;47.544;19.074;2023-02-15T10:32:27;40.88;;;23.85;;
63621;SDS011;49770;47.544;19.074;2023-02-15T10:35:41;39.42;;;24.05;;
63621;SDS011;49770;47.544;19.074;2023-02-15T10:52:32;39.00;;;23.77;;
63621;SDS011;49770;47.544;19.074;2023-02-15T11:02:18;40.60;;;23.42;;
63621;SDS011;49770;47.544;19.074;2023-02-15T11:08:46;43.63;;;24.95;;
63621;SDS011;49770;47.544;19.074;2023-02-15T11:11:52;42.08;;;23.87;;
63621;SDS011;49770;47.544;19.074;2023-02-15T11:18:26;42.58;;;25.05;;
63621;SDS011;49770;47.544;19.074;2023-02-15T11:21:32;39.70;;;26.15;;
63621;SDS011;49770;47.544;19.074;2023-02-15T11:27:48;44.97;;;25.62;;
63621;SDS011;49770;47.544;19.074;2023-02-15T11:30:55;41.60;;;24.37;;
63621;SDS011;49770;47.544;19.074;2023-02-15T11:34:02;37.65;;;23.83;;
63621;SDS011;49770;47.544;19.074;2023-02-15T11:37:16;36.85;;;22.73;;
63621;SDS011;49770;47.544;19.074;2023-02-15T11:40:30;38.60;;;23.67;;
63621;SDS011;49770;47.544;19.074;2023-02-15T11:43:39;40.40;;;24.67;;
63621;SDS011;49770;47.544;19.074;2023-02-15T11:46:46;40.05;;;23.33;;
63621;SDS011;49770;47.544;19.074;2023-02-15T11:49:50;48.20;;;26.08;;
63621;SDS011;49770;47.544;19.074;2023-02-15T11:52:56;46.40;;;25.88;;
63621;SDS011;49770;47.544;19.074;2023-02-15T11:56:02;44.63;;;25.42;;
63621;SDS011;49770;47.544;19.074;2023-02-15T11:59:14;39.53;;;24.12;;
63621;SDS011;49770;47.544;19.074;2023-02-15T12:02:24;42.10;;;25.25;;
63621;SDS011;49770;47.544;19.074;2023-02-15T12:05:30;38.97;;;23.35;;
63621;SDS011;49770;47.544;19.074;2023-02-15T12:08:40;38.78;;;23.45;;
63621;SDS011;49770;47.544;19.074;2023-02-15T12:11:46;41.95;;;25.65;;
63621;SDS011;49770;47.544;19.074;2023-02-15T12:14:54;38.60;;;23.98;;
63621;SDS011;49770;47.544;19.074;2023-02-15T12:18:02;44.88;;;25.92;;
63621;SDS011;49770;47.544;19.074;2023-02-15T12:21:06;42.80;;;25.45;;
63621;SDS011;49770;47.544;19.074;2023-02-15T12:27:18;37.13;;;23.38;;
63621;SDS011;49770;47.544;19.074;2023-02-15T12:30:35;42.08;;;23.75;;
63621;SDS011;49770;47.544;19.074;2023-02-15T12:33:41;44.60;;;25.52;;
63621;SDS011;49770;47.544;19.074;2023-02-15T12:36:49;49.50;;;26.83;;
63621;SDS011;49770;47.544;19.074;2023-02-15T12:40:20;53.40;;;26.73;;
63621;SDS011;49770;47.544;19.074;2023-02-15T12:43:26;46.55;;;26.42;;
63621;SDS011;49770;47.544;19.074;2023-02-15T12:46:33;50.90;;;26.67;;
63621;SDS011;49770;47.544;19.074;2023-02-15T12:49:40;44.60;;;25.50;;
63621;SDS011;49770;47.544;19.074;2023-02-15T12:52:50;47.92;;;25.77;;
63621;SDS011;49770;47.544;19.074;2023-02-15T12:55:55;44.20;;;25.48;;
63621;SDS011;49770;47.544;19.074;2023-02-15T12:59:12;48.28;;;25.60;;
63621;SDS011;49770;47.544;19.074;2023-02-15T13:02:24;45.42;;;25.92;;
63621;SDS011;49770;47.544;19.074;2023-02-15T13:05:39;50.33;;;27.08;;
63621;SDS011;49770;47.544;19.074;2023-02-15T13:08:50;44.38;;;26.05;;
63621;SDS011;49770;47.544;19.074;2023-02-15T13:11:56;45.70;;;25.73;;
63621;SDS011;49770;47.544;19.074;2023-02-15T13:15:22;47.20;;;26.33;;
63621;SDS011;49770;47.544;19.074;2023-02-15T13:18:36;54.00;;;25.67;;
63621;SDS011;49770;47.544;19.074;2023-02-15T13:21:46;46.90;;;24.95;;
63621;SDS011;49770;47.544;19.074;2023-02-15T13:24:53;45.85;;;25.08;;
63621;SDS011;49770;47.544;19.074;2023-02-15T13:28:00;49.63;;;25.10;;
63621;SDS011;49770;47.544;19.074;2023-02-15T13:31:04;41.10;;;22.80;;
63621;SDS011;49770;47.544;19.074;2023-02-15T13:34:29;38.95;;;22.50;;
63621;SDS011;49770;47.544;19.074;2023-02-15T13:40:54;36.40;;;20.48;;
63621;SDS011;49770;47.544;19.074;2023-02-15T13:44:07;37.53;;;21.08;;
63621;SDS011;49770;47.544;19.074;2023-02-15T13:54:15;36.78;;;20.65;;
63621;SDS011;49770;47.544;19.074;2023-02-15T14:04:22;37.58;;;20.33;;
63621;SDS011;49770;47.544;19.074;2023-02-15T14:08:00;37.78;;;20.58;;
63621;SDS011;49770;47.544;19.074;2023-02-15T14:18:05;38.03;;;22.15;;
63621;SDS011;49770;47.544;19.074;2023-02-15T14:21:31;42.15;;;22.80;;
63621;SDS011;49770;47.544;19.074;2023-02-15T14:25:27;39.28;;;21.75;;
63621;SDS011;49770;47.544;19.074;2023-02-15T14:32:01;36.13;;;20.17;;
63621;SDS011;49770;47.544;19.074;2023-02-15T14:35:17;38.08;;;20.60;;
63621;SDS011;49770;47.544;19.074;2023-02-15T14:41:49;35.85;;;19.67;;
63621;SDS011;49770;47.544;19.074;2023-02-15T14:45:12;38.30;;;20.30;;
63621;SDS011;49770;47.544;19.074;2023-02-15T14:48:24;37.53;;;20.85;;
63621;SDS011;49770;47.544;19.074;2023-02-15T14:54:55;38.17;;;20.52;;
63621;SDS011;49770;47.544;19.074;2023-02-15T14:57:59;38.60;;;20.37;;
63621;SDS011;49770;47.544;19.074;2023-02-15T15:01:05;36.92;;;20.33;;
63621;SDS011;49770;47.544;19.074;2023-02-15T15:04:12;34.92;;;19.60;;
63621;SDS011;49770;47.544;19.074;2023-02-15T15:08:19;36.00;;;19.90;;
63621;SDS011;49770;47.544;19.074;2023-02-15T15:10:55;41.72;;;22.00;;
63621;SDS011;49770;47.544;19.074;2023-02-15T15:14:00;37.40;;;21.10;;
63621;SDS011;49770;47.544;19.074;2023-02-15T15:17:04;37.45;;;22.13;;
63621;SDS011;49770;47.544;19.074;2023-02-15T15:20:51;38.53;;;21.98;;
63621;SDS011;49770;47.544;19.074;2023-02-15T15:23:41;37.83;;;21.00;;
63621;SDS011;49770;47.544;19.074;2023-02-15T15:26:46;41.80;;;22.75;;
63621;SDS011;49770;47.544;19.074;2023-02-15T15:29:53;40.12;;;21.45;;
63621;SDS011;49770;47.544;19.074;2023-02-15T15:49:37;39.25;;;21.15;;
63621;SDS011;49770;47.544;19.074;2023-02-15T15:52:42;40.72;;;21.75;;
63621;SDS011;49770;47.544;19.074;2023-02-15T15:55:54;41.92;;;22.25;;
63621;SDS011;49770;47.544;19.074;2023-02-15T15:59:04;42.50;;;22.27;;
63621;SDS011;49770;47.544;19.074;2023-02-15T16:02:11;51.53;;;23.73;;
63621;SDS011;49770;47.544;19.074;2023-02-15T16:05:20;44.13;;;22.17;;
63621;SDS011;49770;47.544;19.074;2023-02-15T16:11:32;39.65;;;20.77;;
63621;SDS011;49770;47.544;19.074;2023-02-15T16:14:35;43.85;;;22.15;;
63621;SDS011;49770;47.544;19.074;2023-02-15T16:17:41;41.75;;;20.92;;
63621;SDS011;49770;47.544;19.074;2023-02-15T16:20:54;42.45;;;22.75;;
63621;SDS011;49770;47.544;19.074;2023-02-15T16:27:41;41.15;;;21.50;;
63621;SDS011;49770;47.544;19.074;2023-02-15T16:30:54;41.42;;;21.25;;
